LOWS Airport Information

Runway Information
Runway 16 Length 9022 ft width 148 ft
Elevation 1411 ft Threshold 656 ft Heading 157
Runway 34 Length 9022 ft Width 148 ft
Elevation 1411 ft Threshold 787 ft Heading 337
Airport Frequencies
Type APP Name APP Frequency 123.725 MHZ
Type ATIS Name ATIS Frequency 125.725 MHZ
Type GND Name GND Frequency 121.75 MHZ
Type TWR Name TWR Frequency 118.1 MHZ
Airport Navaids
Type VOR-DME Name Salzburg Frequency 113800 KHZ
Type NDB Name Salzburg Frequency 382 KHZ
Type NDB Name Salzburg Frequency 410 KHZ
Type NDB Name Salzburg Frequency 356 KHZ
Airport Weather Information & NOTAM
ADDS - METARS form results

(0825 UTC 25 April 2019)
Data provider http://aviationweather.gov/metar/data/
 
METAR text: LOWS 250820Z 15015KT CAVOK 21/03 Q1011 NOSIG
Conditions at: LOWS (SALZBURG AIRPORT, AT) observed 0820 UTC 25 April 2019
Temperature: 21.0°C (70°F)
Dewpoint: 3.0°C (37°F) [RH = 30%]
Pressure (altimeter): 29.85 inches Hg (1011.0 mb)
Winds: from the SSE (150 degrees) at 17 MPH (15 knots; 7.7 m/s)
Visibility: 6 or more miles (10+ km)
Ceiling: ceiling and visibility are OK
Clouds: unknown
Weather: no significant weather observed at this time

METAR text: LOWS 250750Z 16012KT 130V210 CAVOK 20/05 Q1012 TEMPO 15015G25KT
Conditions at: LOWS (SALZBURG AIRPORT, AT) observed 0750 UTC 25 April 2019
Temperature: 20.0°C (68°F)
Dewpoint: 5.0°C (41°F) [RH = 37%]
Pressure (altimeter): 29.88 inches Hg (1012.0 mb)
Winds: from the SSE (160 degrees) at 14 MPH (12 knots; 6.2 m/s)
Visibility: 6 or more miles (10+ km)
Ceiling: ceiling and visibility are OK
Clouds: unknown
Weather: no significant weather observed at this time

Forecast for: LOWS (SALZBURG AIRPORT, AT)
Text: TAF LOWS 250515Z 2506/2606 15008KT CAVOK TX26/2514Z TN13/2506Z
Forecast period: 0600 UTC 25 April 2019 to 0400 UTC 26 April 2019
Forecast type: FROM: standard forecast or significant change
Winds: from the SSE (150 degrees) at 9 MPH (8 knots; 4.1 m/s)
Visibility: 6 or more miles 10+ km)
Ceiling: unknown
Clouds: missing
Weather: no significant weather forecast for this period
Text: TEMPO 2507/2606 15015G25KT
Forecast period: 0700 UTC 25 April 2019 to 0600 UTC 26 April 2019
Forecast type: TEMPORARY: The following changes expected for less than half the time period
Winds: from the SSE (150 degrees) at 17 MPH (15 knots; 7.7 m/s)
gusting to 29 MPH (25 knots; 12.9 m/s)
Visibility: missing
Ceiling: unknown
Clouds: missing
Weather: no significant weather forecast for this period
Text: BECMG 2604/2606 29006KT
Forecast period: 0400 to 0600 UTC 26 April 2019
Forecast type: BECOMING: Conditions expected to become as follows by 0600 UTC 26 April 2019
Winds: from the WNW (290 degrees) at 7 MPH (6 knots; 3.1 m/s)
Visibility: 6 or more miles 10+ km)
Ceiling: unknown
Clouds: missing
Weather: no significant weather forecast for this period